Terminal Aerodrome Forecast
Issued by NWS Milwaukee/Sullivan, WI

Home | Current Version | Previous Version | Text Only | Print | Product List | Glossary On
Versions: 1 2 3 4 5 6 7 8 9 10 11 12 13 14 15 16 17 18 19 20 21 22 23 24 25 26 27 28
000
FTUS43 KMKX 311737
TAFMSN
TAF
KMSN 311737Z 3118/0118 15009KT P6SM -RA BKN070
     FM312000 15009KT P6SM SCT070 BKN100
     FM312200 15009KT P6SM -SHRA BKN090
      TEMPO 3122/0101 4SM TS OVC040CB
     FM010100 15007KT P6SM VCTS BKN090CB
     FM010300 15005KT P6SM BKN080 PROB30 0103/0106 4SM -TSRA
      OVC040CB
     FM010600 VRB03KT P6SM -SHRA VCTS OVC080CB
     FM011100 17004KT 5SM -SHRA VCTS OVC040CB
     FM011400 19005KT P6SM -SHRA VCTS OVC090CB=

USA.gov is the U.S. government's official web portal to all federal, state and local government web resources and services.